AirNav   Everest Fuels
 
 1764 users online  

KASG Springdale Municipal Airport
Springdale, Arkansas, USA

GOING TO SPRINGDALE?


FAA INFORMATION EFFECTIVE 26 JANUARY 2023

Location

FAA Identifier: ASG
Lat/Long: 36-10-35.0000N 094-07-09.3000W
36-10.583333N 094-07.155000W
36.1763889,-94.1192500
(estimated)
Elevation: 1352.5 ft. / 412.2 m (surveyed)
Variation: 04E (1995)
From city: 1 mile SE of SPRINGDALE, AR
Time zone: UTC -6 (UTC -5 during Daylight Saving Time)
Zip code: 72764

Airport Operations

Airport use: Open to the public
Activation date: 04/1944
Control tower: yes
ARTCC: MEMPHIS CENTER
FSS: JONESBORO FLIGHT SERVICE STATION
NOTAMs facility: ASG (NOTAM-D service available)
Attendance: 0600-2100
FOR SVC AFT HRS CALL 479-751-4462.
Wind indicator: lighted
Segmented circle: yes
Lights: ACTVT HIRL RWY 18/36 - CTAF. WHEN ATCT CLSD ACTVT MALSF RWY 18 - CTAF. ACTVT REIL RWY 18 AND 36 - 122.8.
Beacon: white-green (lighted land airport)
Operates sunset to sunrise.
Landing fee: no, ALL ACFT LEFT OVERNIGHT WILL BE CHARGED A RAMP FEE UNLESS FUEL HAS BEEN PURCHASED.

Airport Communications

CTAF: 118.2
UNICOM: 122.95
WX AWOS-3: 124.675 (479-750-2967)
SPRINGDALE GROUND: 121.6 [0600-2100]
SPRINGDALE TOWER: 118.2 [0600-2100]
RAZORBACK APPROACH: 126.6
RAZORBACK DEPARTURE: 126.6
WX ASOS at FYV (11 nm S): 119.575 (479-442-5237)
WX ASOS at XNA (11 nm NW): 119.425 (479-203-0109)
WX AWOS-3PT at VBT (11 nm NW): 134.975 (479-273-9198)
WX AWOS-3PT at ROG (12 nm N): 134.375 (479-631-9196)
WX AWOS-3PT at SLG (18 nm W): 118.375 (479-524-9893)
  • APCH/DEP SVC PRVDD BY MEMPHIS ARTCC ON FREQS 126.1/269.0 (FAYETTEVILLE RCAG) WHEN RAZORBACK APCH CTL CLSD.

Nearby radio navigation aids

VOR radial/distance  VOR name  Freq  Var
RZCr175/4.2RAZORBACK VORTAC116.4004E

 
NDB name  Hdg/Dist  Freq  Var  ID
SILOAM SPRINGS088/17.928404ESLG ... .-.. --.

Airport Services

Fuel available: 100LL JET-A
100LL:100LL AVBL 24 HRS SELF SERVE WITH CREDIT CARD.
Parking: hangars and tiedowns
Airframe service: MAJOR
Powerplant service: MAJOR
Bottled oxygen: LOW
Bulk oxygen: NONE

Runway Information

Runway 18/36

Dimensions: 5302 x 76 ft. / 1616 x 23 m
Surface: asphalt, in excellent condition
Weight bearing capacity: 
Single wheel: 35.0
Double wheel: 50.0
Double tandem: 90.0
Runway edge lights: high intensity
RUNWAY 18  RUNWAY 36
Latitude: 36-11.017568N36-10.150460N
Longitude: 094-07.088313W094-07.221405W
Elevation: 1339.2 ft.1352.4 ft.
Traffic pattern: leftleft
Runway heading: 183 magnetic, 187 true003 magnetic, 007 true
Displaced threshold: 363 ft.no
Markings: precision, in good conditionprecision, in good condition
Visual slope indicator: 4-light PAPI on left (3.00 degrees glide path)4-light PAPI on right (3.00 degrees glide path)
Approach lights: MALSF: 1,400 foot medium intensity approach lighting system with sequenced flashers
Runway end identifier lights: yesyes
Touchdown point: yes, no lightsyes, no lights
Instrument approach: ILS
Obstructions: none
APCH RATIO 50:1 FM DSPLCD THR.
40 ft. trees, 1750 ft. from runway, 400 ft. left of centerline, 38:1 slope to clear

Airport Ownership and Management from official FAA records

Ownership: Publicly-owned
Owner: CITY OF SPRINGDALE
CITY HALL, 201 SPRING ST
SPRINGDALE, AR 72764
Phone 479-750-8114
Manager: JAMES SMITH
802 AIRPORT AVENUE
SPRINGDALE, AR 72764
Phone 479-750-8135

Airport Operational Statistics

Aircraft based on the field: 90
Single engine airplanes: 74
Multi engine airplanes: 10
Jet airplanes: 3
Helicopters: 3
    
Aircraft operations: avg 171/day *
48% transient general aviation
45% local general aviation
7% air taxi
<1% military
* for 12-month period ending 30 April 2019

Additional Remarks

FOR CD WHEN UNA VIA FREQ CTC RAZORBACK APCH 479-649-2416, WHEN APCH CLSD CTC MEMPHIS ARTCC AT 901-368-8453/8449.

Instrument Procedures

NOTE: All procedures below are presented as PDF files. If you need a reader for these files, you should download the free Adobe Reader.

NOT FOR NAVIGATION. Please procure official charts for flight.
FAA instrument procedures published for use from 26 January 2023 at 0901Z to 23 February 2023 at 0900z.

 
IAPs - Instrument Approach Procedures
ILS OR LOC RWY 18   download
RNAV (GPS) RWY 18   download
RNAV (GPS) RWY 36   download
NOTE: Special Alternate Minimums apply   download (33KB)
 
Departure Procedures
SPRING FIVE   download
NOTE: Special Take-Off Minimums/Departure Procedures apply   download (131KB)

Other nearby airports with instrument procedures:

KFYV - Drake Field Airport (11 nm S)
KXNA - Northwest Arkansas National Airport (11 nm NW)
KVBT - Bentonville Municipal Airport/Louise M Thaden Field (11 nm NW)
KROG - Rogers Executive Airport - Carter Field (12 nm N)
KSLG - Smith Field Airport (18 nm W)
H34 - Huntsville Municipal Airport (19 nm E)
5M5 - Crystal Lake Airport (19 nm NW)
 
Loc | Ops | Rwys | IFR | FBO | Links
Com | Nav | Svcs | Stats | Notes

Branson Jet Center
AirBoss

 
Area around KASG (Springdale Municipal Airport)
 
Road maps at: MapQuest Bing Google
 
Aerial photo
WARNING: Photo may not be current or correct
Aerial photo of KASG (Springdale Municipal Airport)
Photo taken 19-May-2008

Do you have a better or more recent aerial photo of Springdale Municipal Airport that you would like to share? If so, please send us your photo.

 
Sectional chart

 
Airport diagram
CAUTION: Diagram may not be current
Diagram of KASG (Springdale Municipal Airport)
Download PDF
of official airport diagram from the FAA

 
Airport distance calculator
Flying to Springdale Municipal Airport? Find the distance to fly.

From to KASG

Sunrise and sunset
Times for 06-Feb-2023
 Local
(UTC-6)
 Zulu
(UTC)
Morning civil twilight06:4712:47
Sunrise07:1413:14
Sunset17:4723:47
Evening civil twilight18:1400:14

Current date and time
Zulu (UTC)  06-Feb-2023 17:42:02
Local (UTC-6)  06-Feb-2023 11:42:02
 
METAR
KASG 061648Z 17013G19KT 10SM SCT027 16/14 A3000
KFYV 
10nm S 
061653Z 18014G25KT 10SM CLR 17/11 A2999 RMK AO2 PK WND 17028/1641 SLP153 T01670106
KXNA 
11nm NW 
061653Z 18017G26KT 10SM -RA FEW023 16/11 A2997 RMK AO2 PK WND 17030/1628 RAB21 SLP147 P0000 T01610106
KVBT 
11nm NW 
061656Z AUTO 18017G26KT 10SM CLR 16/11 A2999 RMK AO2 PK WND 19026/1651 SLP157 T01610106
KROG 
12nm N 
061658Z 18020G32KT 10SM FEW025 16/10 A2998 RMK AO2 PK WND 19032/1651 SLP148 T01610100
KSLG 
17nm W 
061656Z AUTO 18016G25KT 10SM FEW023 16/11 A2997 RMK AO2 PK WND 18027/1640 SLP147 T01610111
TAF
KFYV 
10nm S 
061140Z 0612/0712 16008KT P6SM SCT250 WS020/20035KT FM061600 17015G25KT P6SM SCT018 BKN250 TEMPO 0617/0620 BKN015 FM062000 19017G27KT P6SM BKN025 FM070000 19012G18KT P6SM SCT025 BKN035 FM070600 19011KT P6SM BKN025 PROB30 0707/0710 5SM -RA BKN015 FM071000 30008KT P6SM VCSH BKN015
KXNA 
11nm NW 
060520Z 0606/0706 11003KT P6SM SKC FM061000 16011KT P6SM SCT080 WS020/20035KT FM061400 17015G27KT P6SM SCT025 BKN050 TEMPO 0615/0619 BKN025 FM061900 18015G25KT P6SM BKN025 FM070000 18012G20KT P6SM BKN025
KROG 
12nm N 
061140Z 0612/0712 14011KT P6SM SCT250 WS020/20035KT FM061600 17016G26KT P6SM SCT015 BKN250 TEMPO 0618/0621 BKN015 FM062100 19019G29KT P6SM BKN025 FM070100 19015G22KT P6SM SCT025 BKN035 FM070500 20011KT P6SM BKN025 PROB30 0706/0709 5SM -RA BKN015 FM070900 31011KT P6SM VCSH BKN015
NOTAMs
Click for the latest NOTAMs
NOTAMs are issued by the DoD/FAA and will open in a separate window not controlled by AirNav.

 

 
 

FBO, Fuel Providers, and Aircraft Ground Support

  
 Business Name 
 
 Contact 
 
 Services / Description 
 
Fuel Prices
 
Comments
  
 Summit Aviation
479-751-4462
[web site]
[email]
Aviation fuel, Aircraft ground handling, Aircraft parking (ramp or tiedown), Hangars, Hangar leasing / sales, GPU / Power cart, ...
 
NATA Safety 1st   Titan Rewards  
 
More info about Summit Aviation
Titan
100LL Jet A
FS $6.30 $6.40 
SS $5.50 --- 
 Updated 01-Feb-2023
 
   3 read write
FS=Full service
SS=Self service
Update Fuel Prices
 

Where to Eat: Catering, Restaurants, Food shops

  
 Business Name 
 
 Contact 
 
 Services / Description 
 
Distance
 
Comments
  
 Flightline Bar & Grill
479-616-2320
479-318-2523
[web site]
[email]
Internet access, Restaurant

More info about Flightline Bar & Grill
on airport  
   1 read write
 

Would you like to see your business listed on this page?

 If your business provides an interesting product or service to pilots, flight crews, aircraft, or users of the Springdale Municipal Airport, you should consider listing it here.  To start the listing process, click on the button below
 
Add a business
 

Other Pages about Springdale Municipal Airport

Update a link
 
Copyright © AirNav, LLC. All rights reserved. Privacy Policy  Contact